Airfield :
LOGIN :

Register | Disclaimer

   EN    FR    IT 

 










Legend :    VFR   Marginal VFR   IFR   Intensive IFR   Very Intensive IFR
Visi :
Ceiling :
>= 8 km
>= 3000ft
5 to 8 km
1000 to 3000 ft
1500m to 5 km
500 to 1000 ft
800 to 1500m
200 to 500 ft
< 800m
< 200 ft
Symbols :   Thunderstorms  Fog  Heavy snow  Heavy precipitations  Wind > 20 kt
SIGMETs :     Misc.  Thunderstorms  Icing  Turbulence  Mountain Waves  Volcanic Ashes







- Airport Elevation : 31 ft
- IATA code : INV
- Download approach charts


EGPE - Inverness

CURRENT METAR :
  • 240520Z 23012KT CAVOK 00/M01 Q1002

EXPIRED METARs :
  • 240450Z 24015KT CAVOK 01/M00 Q1001
  • 240420Z 25014KT 9999 FEW020 01/M01 Q1001
  • 240350Z 24007KT 9999 FEW020 01/M00 Q1001
  • 240320Z 23013KT 9999 VCSH FEW018 01/00 Q1001 R05/29//95
  • 240250Z 26018KT 9999 -SHRASN SCT018 02/00 Q1001 R05/71//// R23/71////

TAF TAF EGPE
Valid from the 24 at 06:00 until the 24 at 15:00 UTC


240459Z 2406/2415 25012KT 9999 FEW040
TEMPO 2406/2415 6000 -SHRASN
PROB30
TEMPO 2406/2412 3000 -SHSN BKN007
ATIS : +44 1667 464 255
No reported NOTAMs for that airfield.



MET'MAP, your aeronautical weather chart ! - Copyright ORBIFLY December 2007 - Disclaimer

ORBIFLY MET'MAP TEAM :

Programming & Development : Alexandra Zaïnal
Concept & Development : Baudouin d'Aumeries
Co-Development & Prog : Marc-Olivier Méhu
Technical & hardware support : Manuel Goepfert

Contact : metmap@orbifly.com




SOURCES & CREDITS :

   NOAA